sensor_id;sensor_type;location;lat;lon;timestamp;temperature;humidity
43185;DHT22;28803;52.308;19.096;2023-12-20T00:00:37;6.10;99.90
43185;DHT22;28803;52.308;19.096;2023-12-20T00:03:27;6.10;99.90
43185;DHT22;28803;52.308;19.096;2023-12-20T00:05:59;6.10;99.90
43185;DHT22;28803;52.308;19.096;2023-12-20T00:08:26;6.10;99.90
43185;DHT22;28803;52.308;19.096;2023-12-20T00:10:53;6.10;99.90
43185;DHT22;28803;52.308;19.096;2023-12-20T00:13:21;6.10;99.90
43185;DHT22;28803;52.308;19.096;2023-12-20T00:15:48;6.10;99.90
43185;DHT22;28803;52.308;19.096;2023-12-20T00:18:16;6.20;99.90
43185;DHT22;28803;52.308;19.096;2023-12-20T00:20:43;6.20;99.90
43185;DHT22;28803;52.308;19.096;2023-12-20T00:23:10;6.10;99.90
43185;DHT22;28803;52.308;19.096;2023-12-20T00:25:37;6.10;99.90
43185;DHT22;28803;52.308;19.096;2023-12-20T00:28:05;6.10;99.90
43185;DHT22;28803;52.308;19.096;2023-12-20T00:30:32;6.10;99.90
43185;DHT22;28803;52.308;19.096;2023-12-20T00:33:00;6.10;99.90
43185;DHT22;28803;52.308;19.096;2023-12-20T00:35:27;6.10;99.90
43185;DHT22;28803;52.308;19.096;2023-12-20T00:37:54;6.10;99.90
43185;DHT22;28803;52.308;19.096;2023-12-20T00:40:22;6.10;99.90
43185;DHT22;28803;52.308;19.096;2023-12-20T00:42:49;6.10;99.90
43185;DHT22;28803;52.308;19.096;2023-12-20T00:45:16;6.20;99.90
43185;DHT22;28803;52.308;19.096;2023-12-20T00:47:45;6.20;99.90
43185;DHT22;28803;52.308;19.096;2023-12-20T00:50:13;6.20;99.90
43185;DHT22;28803;52.308;19.096;2023-12-20T00:52:40;6.20;99.90
43185;DHT22;28803;52.308;19.096;2023-12-20T00:55:08;6.20;99.90
43185;DHT22;28803;52.308;19.096;2023-12-20T00:57:35;6.10;99.90
43185;DHT22;28803;52.308;19.096;2023-12-20T01:00:03;6.10;99.90
43185;DHT22;28803;52.308;19.096;2023-12-20T01:02:30;6.10;99.90
43185;DHT22;28803;52.308;19.096;2023-12-20T01:04:58;6.10;99.90
43185;DHT22;28803;52.308;19.096;2023-12-20T01:07:25;6.10;99.90
43185;DHT22;28803;52.308;19.096;2023-12-20T01:09:52;6.10;99.90
43185;DHT22;28803;52.308;19.096;2023-12-20T01:12:20;6.20;99.90
43185;DHT22;28803;52.308;19.096;2023-12-20T01:14:47;6.10;99.90
43185;DHT22;28803;52.308;19.096;2023-12-20T01:17:14;6.10;99.90
43185;DHT22;28803;52.308;19.096;2023-12-20T01:19:41;6.20;99.90
43185;DHT22;28803;52.308;19.096;2023-12-20T01:22:09;6.20;99.90
43185;DHT22;28803;52.308;19.096;2023-12-20T01:24:36;6.10;99.90
43185;DHT22;28803;52.308;19.096;2023-12-20T01:27:04;6.20;99.90
43185;DHT22;28803;52.308;19.096;2023-12-20T01:29:31;6.10;99.90
43185;DHT22;28803;52.308;19.096;2023-12-20T01:31:58;6.20;99.90
43185;DHT22;28803;52.308;19.096;2023-12-20T01:34:26;6.20;99.90
43185;DHT22;28803;52.308;19.096;2023-12-20T01:36:54;6.10;99.90
43185;DHT22;28803;52.308;19.096;2023-12-20T01:39:21;6.20;99.90
43185;DHT22;28803;52.308;19.096;2023-12-20T01:41:56;6.20;99.90
43185;DHT22;28803;52.308;19.096;2023-12-20T01:44:23;6.10;99.90
43185;DHT22;28803;52.308;19.096;2023-12-20T01:46:50;6.10;99.90
43185;DHT22;28803;52.308;19.096;2023-12-20T01:49:18;6.10;99.90
43185;DHT22;28803;52.308;19.096;2023-12-20T01:51:46;6.10;99.90
43185;DHT22;28803;52.308;19.096;2023-12-20T01:54:13;6.10;99.90
43185;DHT22;28803;52.308;19.096;2023-12-20T01:56:41;6.10;99.90
43185;DHT22;28803;52.308;19.096;2023-12-20T01:59:08;6.10;99.90
43185;DHT22;28803;52.308;19.096;2023-12-20T02:01:36;6.10;99.90
43185;DHT22;28803;52.308;19.096;2023-12-20T02:04:04;6.10;99.90
43185;DHT22;28803;52.308;19.096;2023-12-20T02:06:33;6.10;99.90
43185;DHT22;28803;52.308;19.096;2023-12-20T02:09:01;6.10;99.90
43185;DHT22;28803;52.308;19.096;2023-12-20T02:11:28;6.10;99.90
43185;DHT22;28803;52.308;19.096;2023-12-20T02:13:56;6.10;99.90
43185;DHT22;28803;52.308;19.096;2023-12-20T02:16:23;6.10;99.90
43185;DHT22;28803;52.308;19.096;2023-12-20T02:18:50;6.10;99.90
43185;DHT22;28803;52.308;19.096;2023-12-20T02:21:18;6.10;99.90
43185;DHT22;28803;52.308;19.096;2023-12-20T02:23:46;6.10;99.90
43185;DHT22;28803;52.308;19.096;2023-12-20T02:26:14;6.10;99.90
43185;DHT22;28803;52.308;19.096;2023-12-20T02:28:41;6.10;99.90
43185;DHT22;28803;52.308;19.096;2023-12-20T02:31:09;6.10;99.90
43185;DHT22;28803;52.308;19.096;2023-12-20T02:33:36;6.10;99.90
43185;DHT22;28803;52.308;19.096;2023-12-20T02:36:04;6.00;99.90
43185;DHT22;28803;52.308;19.096;2023-12-20T02:38:31;6.10;99.90
43185;DHT22;28803;52.308;19.096;2023-12-20T02:40:58;6.00;99.90
43185;DHT22;28803;52.308;19.096;2023-12-20T02:43:26;6.10;99.90
43185;DHT22;28803;52.308;19.096;2023-12-20T02:45:53;6.10;99.90
43185;DHT22;28803;52.308;19.096;2023-12-20T02:48:20;6.00;99.90
43185;DHT22;28803;52.308;19.096;2023-12-20T02:50:48;6.00;99.90
43185;DHT22;28803;52.308;19.096;2023-12-20T02:53:16;6.00;99.90
43185;DHT22;28803;52.308;19.096;2023-12-20T02:55:43;6.00;99.90
43185;DHT22;28803;52.308;19.096;2023-12-20T02:58:10;6.00;99.90
43185;DHT22;28803;52.308;19.096;2023-12-20T03:00:38;6.00;99.90
43185;DHT22;28803;52.308;19.096;2023-12-20T03:03:05;6.00;99.90
43185;DHT22;28803;52.308;19.096;2023-12-20T03:05:33;6.00;99.90
43185;DHT22;28803;52.308;19.096;2023-12-20T03:08:00;6.00;99.90
43185;DHT22;28803;52.308;19.096;2023-12-20T03:10:27;6.00;99.90
43185;DHT22;28803;52.308;19.096;2023-12-20T03:12:55;6.00;99.90
43185;DHT22;28803;52.308;19.096;2023-12-20T03:15:22;6.00;99.90
43185;DHT22;28803;52.308;19.096;2023-12-20T03:17:49;6.00;99.90
43185;DHT22;28803;52.308;19.096;2023-12-20T03:20:17;6.00;99.90
43185;DHT22;28803;52.308;19.096;2023-12-20T03:22:44;5.90;99.90
43185;DHT22;28803;52.308;19.096;2023-12-20T03:25:12;6.00;99.90
43185;DHT22;28803;52.308;19.096;2023-12-20T03:27:39;5.90;99.90
43185;DHT22;28803;52.308;19.096;2023-12-20T03:30:07;5.90;99.90
43185;DHT22;28803;52.308;19.096;2023-12-20T03:32:34;5.90;99.90
43185;DHT22;28803;52.308;19.096;2023-12-20T03:35:02;5.90;99.90
43185;DHT22;28803;52.308;19.096;2023-12-20T03:37:29;5.90;99.90
43185;DHT22;28803;52.308;19.096;2023-12-20T03:39:56;5.90;99.90
43185;DHT22;28803;52.308;19.096;2023-12-20T03:42:24;5.90;99.90
43185;DHT22;28803;52.308;19.096;2023-12-20T03:44:51;5.90;99.90
43185;DHT22;28803;52.308;19.096;2023-12-20T03:47:18;5.90;99.90
43185;DHT22;28803;52.308;19.096;2023-12-20T03:49:45;5.90;99.90
43185;DHT22;28803;52.308;19.096;2023-12-20T03:52:13;5.90;99.90
43185;DHT22;28803;52.308;19.096;2023-12-20T03:54:40;5.90;99.90
43185;DHT22;28803;52.308;19.096;2023-12-20T03:57:10;5.90;99.90
43185;DHT22;28803;52.308;19.096;2023-12-20T03:59:38;5.90;99.90
43185;DHT22;28803;52.308;19.096;2023-12-20T04:02:05;5.90;99.90
43185;DHT22;28803;52.308;19.096;2023-12-20T04:04:32;5.90;99.90
43185;DHT22;28803;52.308;19.096;2023-12-20T04:07:00;5.90;99.90
43185;DHT22;28803;52.308;19.096;2023-12-20T04:09:27;6.00;99.90
43185;DHT22;28803;52.308;19.096;2023-12-20T04:11:55;6.00;99.90
43185;DHT22;28803;52.308;19.096;2023-12-20T04:14:22;6.00;99.90
43185;DHT22;28803;52.308;19.096;2023-12-20T04:16:49;6.00;99.90
43185;DHT22;28803;52.308;19.096;2023-12-20T04:19:16;6.00;99.90
43185;DHT22;28803;52.308;19.096;2023-12-20T04:21:44;6.00;99.90
43185;DHT22;28803;52.308;19.096;2023-12-20T04:24:11;6.00;99.90
43185;DHT22;28803;52.308;19.096;2023-12-20T04:26:38;6.00;99.90
43185;DHT22;28803;52.308;19.096;2023-12-20T04:29:06;5.90;99.90
43185;DHT22;28803;52.308;19.096;2023-12-20T04:31:33;5.90;99.90
43185;DHT22;28803;52.308;19.096;2023-12-20T04:34:01;5.90;99.90
43185;DHT22;28803;52.308;19.096;2023-12-20T04:36:28;5.90;99.90
43185;DHT22;28803;52.308;19.096;2023-12-20T04:38:57;5.90;99.90
43185;DHT22;28803;52.308;19.096;2023-12-20T04:41:24;5.90;99.90
43185;DHT22;28803;52.308;19.096;2023-12-20T04:43:51;5.80;99.90
43185;DHT22;28803;52.308;19.096;2023-12-20T04:46:18;5.90;99.90
43185;DHT22;28803;52.308;19.096;2023-12-20T04:48:46;5.90;99.90
43185;DHT22;28803;52.308;19.096;2023-12-20T04:51:13;5.90;99.90
43185;DHT22;28803;52.308;19.096;2023-12-20T04:53:41;5.90;99.90
43185;DHT22;28803;52.308;19.096;2023-12-20T04:56:08;5.90;99.90
43185;DHT22;28803;52.308;19.096;2023-12-20T04:58:35;5.90;99.90
43185;DHT22;28803;52.308;19.096;2023-12-20T05:01:04;5.90;99.90
43185;DHT22;28803;52.308;19.096;2023-12-20T05:03:32;5.80;99.90
43185;DHT22;28803;52.308;19.096;2023-12-20T05:06:00;5.90;99.90
43185;DHT22;28803;52.308;19.096;2023-12-20T05:08:27;5.80;99.90
43185;DHT22;28803;52.308;19.096;2023-12-20T05:10:55;5.80;99.90
43185;DHT22;28803;52.308;19.096;2023-12-20T05:13:22;5.80;99.90
43185;DHT22;28803;52.308;19.096;2023-12-20T05:16:03;5.80;99.90
43185;DHT22;28803;52.308;19.096;2023-12-20T05:18:31;5.80;99.90
43185;DHT22;28803;52.308;19.096;2023-12-20T05:20:58;5.80;99.90
43185;DHT22;28803;52.308;19.096;2023-12-20T05:23:26;5.70;99.90
43185;DHT22;28803;52.308;19.096;2023-12-20T05:25:53;5.70;99.90
43185;DHT22;28803;52.308;19.096;2023-12-20T05:28:20;5.70;99.90
43185;DHT22;28803;52.308;19.096;2023-12-20T05:30:48;5.70;99.90
43185;DHT22;28803;52.308;19.096;2023-12-20T05:33:15;5.70;99.90
43185;DHT22;28803;52.308;19.096;2023-12-20T05:35:43;5.70;99.90
43185;DHT22;28803;52.308;19.096;2023-12-20T05:38:11;5.70;99.90
43185;DHT22;28803;52.308;19.096;2023-12-20T05:40:38;5.70;99.90
43185;DHT22;28803;52.308;19.096;2023-12-20T05:43:06;5.70;99.90
43185;DHT22;28803;52.308;19.096;2023-12-20T05:45:33;5.70;99.90
43185;DHT22;28803;52.308;19.096;2023-12-20T05:48:00;5.70;99.90
43185;DHT22;28803;52.308;19.096;2023-12-20T05:50:27;5.70;99.90
43185;DHT22;28803;52.308;19.096;2023-12-20T05:52:55;5.70;99.90
43185;DHT22;28803;52.308;19.096;2023-12-20T05:55:22;5.70;99.90
43185;DHT22;28803;52.308;19.096;2023-12-20T05:57:49;5.70;99.90
43185;DHT22;28803;52.308;19.096;2023-12-20T06:00:17;5.70;99.90
43185;DHT22;28803;52.308;19.096;2023-12-20T06:02:44;5.60;99.90
43185;DHT22;28803;52.308;19.096;2023-12-20T06:05:11;5.60;99.90
43185;DHT22;28803;52.308;19.096;2023-12-20T06:07:39;5.70;99.90
43185;DHT22;28803;52.308;19.096;2023-12-20T06:10:06;5.60;99.90
43185;DHT22;28803;52.308;19.096;2023-12-20T06:12:34;5.70;99.90
43185;DHT22;28803;52.308;19.096;2023-12-20T06:15:03;5.60;99.90
43185;DHT22;28803;52.308;19.096;2023-12-20T06:17:31;5.60;99.90
43185;DHT22;28803;52.308;19.096;2023-12-20T06:19:58;5.70;99.90
43185;DHT22;28803;52.308;19.096;2023-12-20T06:22:26;5.70;99.90
43185;DHT22;28803;52.308;19.096;2023-12-20T06:24:53;5.70;99.90
43185;DHT22;28803;52.308;19.096;2023-12-20T06:27:21;5.70;99.90
43185;DHT22;28803;52.308;19.096;2023-12-20T06:29:48;5.60;99.90
43185;DHT22;28803;52.308;19.096;2023-12-20T06:32:15;5.60;99.90
43185;DHT22;28803;52.308;19.096;2023-12-20T06:34:43;5.60;99.90
43185;DHT22;28803;52.308;19.096;2023-12-20T06:37:10;5.60;99.90
43185;DHT22;28803;52.308;19.096;2023-12-20T06:39:37;5.60;99.90
43185;DHT22;28803;52.308;19.096;2023-12-20T06:42:05;5.60;99.90
43185;DHT22;28803;52.308;19.096;2023-12-20T06:44:32;5.60;99.90
43185;DHT22;28803;52.308;19.096;2023-12-20T06:46:59;5.60;99.90
43185;DHT22;28803;52.308;19.096;2023-12-20T06:49:26;5.60;99.90
43185;DHT22;28803;52.308;19.096;2023-12-20T06:51:54;5.60;99.90
43185;DHT22;28803;52.308;19.096;2023-12-20T06:54:21;5.70;99.90
43185;DHT22;28803;52.308;19.096;2023-12-20T06:56:49;5.60;99.90
43185;DHT22;28803;52.308;19.096;2023-12-20T06:59:16;5.60;99.90
43185;DHT22;28803;52.308;19.096;2023-12-20T07:01:48;5.60;99.90
43185;DHT22;28803;52.308;19.096;2023-12-20T07:04:16;5.60;99.90
43185;DHT22;28803;52.308;19.096;2023-12-20T07:06:48;5.60;99.90
43185;DHT22;28803;52.308;19.096;2023-12-20T07:09:19;5.60;99.90
43185;DHT22;28803;52.308;19.096;2023-12-20T07:11:46;5.60;99.90
43185;DHT22;28803;52.308;19.096;2023-12-20T07:14:13;5.60;99.90
43185;DHT22;28803;52.308;19.096;2023-12-20T07:16:41;5.60;99.90
43185;DHT22;28803;52.308;19.096;2023-12-20T07:19:08;5.60;99.90
43185;DHT22;28803;52.308;19.096;2023-12-20T07:21:36;5.60;99.90
43185;DHT22;28803;52.308;19.096;2023-12-20T07:24:03;5.70;99.90
43185;DHT22;28803;52.308;19.096;2023-12-20T07:26:31;5.60;99.90
43185;DHT22;28803;52.308;19.096;2023-12-20T07:28:58;5.60;99.90
43185;DHT22;28803;52.308;19.096;2023-12-20T07:31:26;5.60;99.90
43185;DHT22;28803;52.308;19.096;2023-12-20T07:33:53;5.60;99.90
43185;DHT22;28803;52.308;19.096;2023-12-20T07:36:21;5.60;99.90
43185;DHT22;28803;52.308;19.096;2023-12-20T07:38:48;5.70;99.90
43185;DHT22;28803;52.308;19.096;2023-12-20T07:41:16;5.60;99.90
43185;DHT22;28803;52.308;19.096;2023-12-20T07:43:43;5.70;99.90
43185;DHT22;28803;52.308;19.096;2023-12-20T07:46:10;5.70;99.90
43185;DHT22;28803;52.308;19.096;2023-12-20T07:48:38;5.70;99.90
43185;DHT22;28803;52.308;19.096;2023-12-20T07:51:09;5.70;99.90
43185;DHT22;28803;52.308;19.096;2023-12-20T07:53:36;5.70;99.90
43185;DHT22;28803;52.308;19.096;2023-12-20T07:56:17;5.80;99.90
43185;DHT22;28803;52.308;19.096;2023-12-20T07:58:45;5.70;99.90
43185;DHT22;28803;52.308;19.096;2023-12-20T08:01:20;5.70;99.90
43185;DHT22;28803;52.308;19.096;2023-12-20T08:03:49;5.80;99.90
43185;DHT22;28803;52.308;19.096;2023-12-20T08:06:17;5.80;99.90
43185;DHT22;28803;52.308;19.096;2023-12-20T08:08:44;5.80;99.90
43185;DHT22;28803;52.308;19.096;2023-12-20T08:11:21;5.80;99.90
43185;DHT22;28803;52.308;19.096;2023-12-20T08:13:48;5.80;99.90
43185;DHT22;28803;52.308;19.096;2023-12-20T08:16:16;5.80;99.90
43185;DHT22;28803;52.308;19.096;2023-12-20T08:18:45;5.80;99.90
43185;DHT22;28803;52.308;19.096;2023-12-20T08:21:13;5.80;99.90
43185;DHT22;28803;52.308;19.096;2023-12-20T08:23:40;5.80;99.90
43185;DHT22;28803;52.308;19.096;2023-12-20T08:26:08;5.80;99.90
43185;DHT22;28803;52.308;19.096;2023-12-20T08:28:35;5.90;99.90
43185;DHT22;28803;52.308;19.096;2023-12-20T08:31:04;5.80;99.90
43185;DHT22;28803;52.308;19.096;2023-12-20T08:33:31;5.80;99.90
43185;DHT22;28803;52.308;19.096;2023-12-20T08:35:59;5.90;99.90
43185;DHT22;28803;52.308;19.096;2023-12-20T08:38:27;5.80;99.90
43185;DHT22;28803;52.308;19.096;2023-12-20T08:40:54;5.80;99.90
43185;DHT22;28803;52.308;19.096;2023-12-20T08:43:21;5.80;99.90
43185;DHT22;28803;52.308;19.096;2023-12-20T08:45:49;5.80;99.90
43185;DHT22;28803;52.308;19.096;2023-12-20T08:48:16;5.80;99.90
43185;DHT22;28803;52.308;19.096;2023-12-20T08:50:44;5.80;99.90
43185;DHT22;28803;52.308;19.096;2023-12-20T08:53:11;5.80;99.90
43185;DHT22;28803;52.308;19.096;2023-12-20T08:55:39;5.80;99.90
43185;DHT22;28803;52.308;19.096;2023-12-20T08:58:07;5.80;99.90
43185;DHT22;28803;52.308;19.096;2023-12-20T09:00:35;5.80;99.90
43185;DHT22;28803;52.308;19.096;2023-12-20T09:03:02;5.80;99.90
43185;DHT22;28803;52.308;19.096;2023-12-20T09:05:30;5.80;99.90
43185;DHT22;28803;52.308;19.096;2023-12-20T09:07:58;5.80;99.90
43185;DHT22;28803;52.308;19.096;2023-12-20T09:10:25;5.80;99.90
43185;DHT22;28803;52.308;19.096;2023-12-20T09:12:53;5.80;99.90
43185;DHT22;28803;52.308;19.096;2023-12-20T09:15:25;5.80;99.90
43185;DHT22;28803;52.308;19.096;2023-12-20T09:17:53;5.80;99.90
43185;DHT22;28803;52.308;19.096;2023-12-20T09:20:21;5.70;99.90
43185;DHT22;28803;52.308;19.096;2023-12-20T09:22:50;5.70;99.90
43185;DHT22;28803;52.308;19.096;2023-12-20T09:25:18;5.70;99.90
43185;DHT22;28803;52.308;19.096;2023-12-20T09:27:46;5.70;99.90
43185;DHT22;28803;52.308;19.096;2023-12-20T09:30:14;5.70;99.90
43185;DHT22;28803;52.308;19.096;2023-12-20T09:32:54;5.70;99.90
43185;DHT22;28803;52.308;19.096;2023-12-20T09:35:22;5.80;99.90
43185;DHT22;28803;52.308;19.096;2023-12-20T09:37:49;5.80;99.90
43185;DHT22;28803;52.308;19.096;2023-12-20T09:40:20;5.80;99.90
43185;DHT22;28803;52.308;19.096;2023-12-20T09:45:20;5.80;99.90
43185;DHT22;28803;52.308;19.096;2023-12-20T09:47:53;5.80;99.90
43185;DHT22;28803;52.308;19.096;2023-12-20T09:50:21;5.80;99.90
43185;DHT22;28803;52.308;19.096;2023-12-20T09:52:53;5.80;99.90
43185;DHT22;28803;52.308;19.096;2023-12-20T09:55:25;5.70;99.90
43185;DHT22;28803;52.308;19.096;2023-12-20T09:57:54;5.80;99.90
43185;DHT22;28803;52.308;19.096;2023-12-20T10:00:22;5.80;99.90
43185;DHT22;28803;52.308;19.096;2023-12-20T10:02:59;5.70;99.90
43185;DHT22;28803;52.308;19.096;2023-12-20T10:05:30;5.80;99.90
43185;DHT22;28803;52.308;19.096;2023-12-20T10:07:58;5.90;99.90
43185;DHT22;28803;52.308;19.096;2023-12-20T10:10:27;5.90;99.90
43185;DHT22;28803;52.308;19.096;2023-12-20T10:13:10;5.90;99.90
43185;DHT22;28803;52.308;19.096;2023-12-20T10:15:39;5.90;99.90
43185;DHT22;28803;52.308;19.096;2023-12-20T10:18:06;5.80;99.90
43185;DHT22;28803;52.308;19.096;2023-12-20T10:20:34;5.80;99.90
43185;DHT22;28803;52.308;19.096;2023-12-20T10:23:02;5.80;99.90
43185;DHT22;28803;52.308;19.096;2023-12-20T10:25:30;5.80;99.90
43185;DHT22;28803;52.308;19.096;2023-12-20T10:28:15;5.80;99.90
43185;DHT22;28803;52.308;19.096;2023-12-20T10:30:46;5.90;99.90
43185;DHT22;28803;52.308;19.096;2023-12-20T10:33:26;5.90;99.90
43185;DHT22;28803;52.308;19.096;2023-12-20T10:35:55;5.80;99.90
43185;DHT22;28803;52.308;19.096;2023-12-20T10:38:22;5.80;99.90
43185;DHT22;28803;52.308;19.096;2023-12-20T10:40:55;5.80;99.90
43185;DHT22;28803;52.308;19.096;2023-12-20T10:43:24;5.90;99.90
43185;DHT22;28803;52.308;19.096;2023-12-20T10:45:54;5.90;99.90
43185;DHT22;28803;52.308;19.096;2023-12-20T10:48:21;5.80;99.90
43185;DHT22;28803;52.308;19.096;2023-12-20T10:50:55;5.80;99.90
43185;DHT22;28803;52.308;19.096;2023-12-20T10:53:24;5.70;99.90
43185;DHT22;28803;52.308;19.096;2023-12-20T10:55:55;5.70;99.90
43185;DHT22;28803;52.308;19.096;2023-12-20T10:58:26;5.70;99.90
43185;DHT22;28803;52.308;19.096;2023-12-20T11:01:00;5.70;99.90
43185;DHT22;28803;52.308;19.096;2023-12-20T11:03:34;5.70;99.90
43185;DHT22;28803;52.308;19.096;2023-12-20T11:14:34;5.80;99.90
43185;DHT22;28803;52.308;19.096;2023-12-20T11:17:07;5.70;99.90
43185;DHT22;28803;52.308;19.096;2023-12-20T11:22:21;5.70;99.90
43185;DHT22;28803;52.308;19.096;2023-12-20T11:24:49;5.70;99.90
43185;DHT22;28803;52.308;19.096;2023-12-20T11:27:18;5.70;99.90
43185;DHT22;28803;52.308;19.096;2023-12-20T11:29:53;5.70;99.90
43185;DHT22;28803;52.308;19.096;2023-12-20T11:32:27;5.70;99.90
43185;DHT22;28803;52.308;19.096;2023-12-20T11:35:00;5.70;99.90
43185;DHT22;28803;52.308;19.096;2023-12-20T11:37:29;5.60;99.90
43185;DHT22;28803;52.308;19.096;2023-12-20T11:40:05;5.50;99.90
43185;DHT22;28803;52.308;19.096;2023-12-20T11:42:41;5.60;99.90
43185;DHT22;28803;52.308;19.096;2023-12-20T11:45:10;5.60;99.90
43185;DHT22;28803;52.308;19.096;2023-12-20T11:47:38;5.70;99.90
43185;DHT22;28803;52.308;19.096;2023-12-20T11:50:06;5.70;99.90
43185;DHT22;28803;52.308;19.096;2023-12-20T11:52:33;5.60;99.90
43185;DHT22;28803;52.308;19.096;2023-12-20T11:55:01;5.60;99.90
43185;DHT22;28803;52.308;19.096;2023-12-20T11:57:31;5.60;99.90
43185;DHT22;28803;52.308;19.096;2023-12-20T11:59:59;5.60;99.90
43185;DHT22;28803;52.308;19.096;2023-12-20T12:02:26;5.50;99.90
43185;DHT22;28803;52.308;19.096;2023-12-20T12:04:53;5.50;99.90
43185;DHT22;28803;52.308;19.096;2023-12-20T12:07:22;5.50;99.90
43185;DHT22;28803;52.308;19.096;2023-12-20T12:09:50;5.40;99.90
43185;DHT22;28803;52.308;19.096;2023-12-20T12:12:18;5.40;99.90
43185;DHT22;28803;52.308;19.096;2023-12-20T12:14:46;5.40;99.90
43185;DHT22;28803;52.308;19.096;2023-12-20T12:17:14;5.40;99.90
43185;DHT22;28803;52.308;19.096;2023-12-20T12:19:42;5.40;99.90
43185;DHT22;28803;52.308;19.096;2023-12-20T12:22:15;5.40;99.90
43185;DHT22;28803;52.308;19.096;2023-12-20T12:24:44;5.30;99.90
43185;DHT22;28803;52.308;19.096;2023-12-20T12:27:13;5.30;99.90
43185;DHT22;28803;52.308;19.096;2023-12-20T12:29:40;5.20;99.90
43185;DHT22;28803;52.308;19.096;2023-12-20T12:32:08;5.20;99.90
43185;DHT22;28803;52.308;19.096;2023-12-20T12:34:37;5.20;99.90
43185;DHT22;28803;52.308;19.096;2023-12-20T12:37:04;5.30;99.90
43185;DHT22;28803;52.308;19.096;2023-12-20T12:39:32;5.30;99.90
43185;DHT22;28803;52.308;19.096;2023-12-20T12:41:59;5.30;99.90
43185;DHT22;28803;52.308;19.096;2023-12-20T12:44:27;5.30;99.90
43185;DHT22;28803;52.308;19.096;2023-12-20T12:46:54;5.30;99.90
43185;DHT22;28803;52.308;19.096;2023-12-20T12:49:22;5.30;99.90
43185;DHT22;28803;52.308;19.096;2023-12-20T12:51:50;5.30;99.90
43185;DHT22;28803;52.308;19.096;2023-12-20T12:54:18;5.30;99.90
43185;DHT22;28803;52.308;19.096;2023-12-20T12:56:45;5.30;99.90
43185;DHT22;28803;52.308;19.096;2023-12-20T12:59:16;5.30;99.90
43185;DHT22;28803;52.308;19.096;2023-12-20T13:01:44;5.30;99.90
43185;DHT22;28803;52.308;19.096;2023-12-20T13:04:11;5.20;99.90
43185;DHT22;28803;52.308;19.096;2023-12-20T13:06:39;5.10;99.90
43185;DHT22;28803;52.308;19.096;2023-12-20T13:09:09;5.10;99.90
43185;DHT22;28803;52.308;19.096;2023-12-20T13:11:37;5.10;99.90
43185;DHT22;28803;52.308;19.096;2023-12-20T13:14:04;5.00;99.90
43185;DHT22;28803;52.308;19.096;2023-12-20T13:16:32;5.00;99.90
43185;DHT22;28803;52.308;19.096;2023-12-20T13:19:01;4.90;99.90
43185;DHT22;28803;52.308;19.096;2023-12-20T13:21:29;4.90;99.90
43185;DHT22;28803;52.308;19.096;2023-12-20T13:23:57;4.90;99.90
43185;DHT22;28803;52.308;19.096;2023-12-20T13:26:25;4.90;99.90
43185;DHT22;28803;52.308;19.096;2023-12-20T13:28:54;4.80;99.90
43185;DHT22;28803;52.308;19.096;2023-12-20T13:31:22;4.80;99.90
43185;DHT22;28803;52.308;19.096;2023-12-20T13:33:49;4.80;99.90
43185;DHT22;28803;52.308;19.096;2023-12-20T13:36:18;4.80;99.90
43185;DHT22;28803;52.308;19.096;2023-12-20T13:38:47;4.80;99.90
43185;DHT22;28803;52.308;19.096;2023-12-20T13:41:14;4.80;99.90
43185;DHT22;28803;52.308;19.096;2023-12-20T13:43:42;4.80;99.90
43185;DHT22;28803;52.308;19.096;2023-12-20T13:46:10;4.80;99.90
43185;DHT22;28803;52.308;19.096;2023-12-20T13:48:37;4.80;99.90
43185;DHT22;28803;52.308;19.096;2023-12-20T13:51:05;4.80;99.90
43185;DHT22;28803;52.308;19.096;2023-12-20T13:53:32;4.80;99.90
43185;DHT22;28803;52.308;19.096;2023-12-20T13:56:00;4.80;99.90
43185;DHT22;28803;52.308;19.096;2023-12-20T13:58:28;4.80;99.90
43185;DHT22;28803;52.308;19.096;2023-12-20T14:00:56;4.70;99.90
43185;DHT22;28803;52.308;19.096;2023-12-20T14:03:23;4.60;99.90
43185;DHT22;28803;52.308;19.096;2023-12-20T14:05:51;4.70;99.90
43185;DHT22;28803;52.308;19.096;2023-12-20T14:08:19;4.70;99.90
43185;DHT22;28803;52.308;19.096;2023-12-20T14:10:46;4.70;99.90
43185;DHT22;28803;52.308;19.096;2023-12-20T14:13:14;4.70;99.90
43185;DHT22;28803;52.308;19.096;2023-12-20T14:15:41;4.70;99.90
43185;DHT22;28803;52.308;19.096;2023-12-20T14:18:08;4.70;99.90
43185;DHT22;28803;52.308;19.096;2023-12-20T14:20:36;4.70;99.90
43185;DHT22;28803;52.308;19.096;2023-12-20T14:23:06;4.70;99.90
43185;DHT22;28803;52.308;19.096;2023-12-20T14:25:34;4.70;99.90
43185;DHT22;28803;52.308;19.096;2023-12-20T14:28:17;4.70;99.90
43185;DHT22;28803;52.308;19.096;2023-12-20T14:30:45;4.70;99.90
43185;DHT22;28803;52.308;19.096;2023-12-20T14:33:12;4.70;99.90
43185;DHT22;28803;52.308;19.096;2023-12-20T14:35:41;4.70;99.90
43185;DHT22;28803;52.308;19.096;2023-12-20T14:38:11;4.70;99.90
43185;DHT22;28803;52.308;19.096;2023-12-20T14:40:42;4.70;99.90
43185;DHT22;28803;52.308;19.096;2023-12-20T14:43:09;4.70;99.90
43185;DHT22;28803;52.308;19.096;2023-12-20T14:45:37;4.70;99.90
43185;DHT22;28803;52.308;19.096;2023-12-20T14:48:05;4.60;99.90
43185;DHT22;28803;52.308;19.096;2023-12-20T14:50:32;4.60;99.90
43185;DHT22;28803;52.308;19.096;2023-12-20T14:52:59;4.50;99.90
43185;DHT22;28803;52.308;19.096;2023-12-20T14:55:27;4.50;99.90
43185;DHT22;28803;52.308;19.096;2023-12-20T14:57:56;4.40;99.90
43185;DHT22;28803;52.308;19.096;2023-12-20T15:00:23;4.40;99.90
43185;DHT22;28803;52.308;19.096;2023-12-20T15:02:50;4.40;99.90
43185;DHT22;28803;52.308;19.096;2023-12-20T15:05:18;4.40;99.90
43185;DHT22;28803;52.308;19.096;2023-12-20T15:07:46;4.30;99.90
43185;DHT22;28803;52.308;19.096;2023-12-20T15:10:16;4.20;99.90
43185;DHT22;28803;52.308;19.096;2023-12-20T15:12:46;4.00;99.90
43185;DHT22;28803;52.308;19.096;2023-12-20T15:15:14;4.00;99.90
43185;DHT22;28803;52.308;19.096;2023-12-20T15:17:41;3.90;99.90
43185;DHT22;28803;52.308;19.096;2023-12-20T15:20:09;3.80;99.90
43185;DHT22;28803;52.308;19.096;2023-12-20T15:22:37;4.00;99.90
43185;DHT22;28803;52.308;19.096;2023-12-20T15:25:05;4.10;99.90
43185;DHT22;28803;52.308;19.096;2023-12-20T15:27:35;4.10;99.90
43185;DHT22;28803;52.308;19.096;2023-12-20T15:30:06;4.20;99.90
43185;DHT22;28803;52.308;19.096;2023-12-20T15:32:35;4.20;99.90
43185;DHT22;28803;52.308;19.096;2023-12-20T15:35:04;4.30;99.90
43185;DHT22;28803;52.308;19.096;2023-12-20T15:37:32;4.30;99.90
43185;DHT22;28803;52.308;19.096;2023-12-20T15:40:00;4.30;99.90
43185;DHT22;28803;52.308;19.096;2023-12-20T15:42:32;4.40;99.90
43185;DHT22;28803;52.308;19.096;2023-12-20T15:45:04;4.30;99.90
43185;DHT22;28803;52.308;19.096;2023-12-20T15:47:31;4.30;99.90
43185;DHT22;28803;52.308;19.096;2023-12-20T15:49:59;4.40;99.90